Time;durP1;ratioP1;P1;durP2;ratioP2;P2;SDS_P1;SDS_P2;PMS_P1;PMS_P2;Temp;Humidity;BMP_temperature;BMP_pressure;BME280_temperature;BME280_humidity;BME280_pressure;Samples;Min_cycle;Max_cycle;Signal;HPM_P1;HPM_P2
2022/12/13 00:00:46;;;;;;;50.43;24.23;;;-7.10;99.90;;;;;;5012492;28;20215;-90
2022/12/13 00:03:13;;;;;;;52.23;25.20;;;-7.00;99.90;;;;;;5015342;28;20227;-91
2022/12/13 00:05:44;;;;;;;52.47;24.03;;;-7.00;99.90;;;;;;5021570;28;20709;-90
2022/12/13 00:08:11;;;;;;;59.47;26.47;;;-6.90;99.90;;;;;;5017118;28;20229;-90
2022/12/13 00:10:38;;;;;;;52.23;26.13;;;-6.90;99.90;;;;;;5021841;28;20841;-91
2022/12/13 00:13:05;;;;;;;51.87;25.67;;;-6.70;99.90;;;;;;5023828;28;20231;-90
2022/12/13 00:15:32;;;;;;;50.67;24.50;;;-6.80;99.90;;;;;;5021733;28;20219;-90
2022/12/13 00:17:59;;;;;;;55.23;26.90;;;-6.70;99.90;;;;;;5012516;28;20879;-89
2022/12/13 00:20:26;;;;;;;59.07;27.07;;;-6.70;99.90;;;;;;5011158;28;20233;-90
2022/12/13 00:22:54;;;;;;;49.73;24.27;;;-6.70;99.90;;;;;;5015913;28;20277;-90
2022/12/13 00:25:21;;;;;;;51.03;25.40;;;-6.70;99.90;;;;;;5016622;28;20278;-90
2022/12/13 00:27:48;;;;;;;48.90;22.73;;;-6.70;99.90;;;;;;5018776;28;20865;-91
2022/12/13 00:30:14;;;;;;;52.00;25.93;;;-6.70;99.90;;;;;;5017230;28;20237;-91
2022/12/13 00:32:41;;;;;;;49.83;25.37;;;-6.70;99.90;;;;;;5021349;28;20721;-90
2022/12/13 00:35:08;;;;;;;52.63;25.03;;;-6.70;99.90;;;;;;5029565;28;20219;-91
2022/12/13 00:37:35;;;;;;;54.70;27.17;;;-6.70;99.90;;;;;;5017241;28;20248;-92
2022/12/13 00:40:03;;;;;;;56.77;25.47;;;-6.80;99.90;;;;;;5014897;28;20229;-91
2022/12/13 00:42:30;;;;;;;50.23;24.93;;;-6.90;99.90;;;;;;5016300;28;20889;-92
2022/12/13 00:44:57;;;;;;;50.60;24.80;;;-6.80;99.90;;;;;;5023064;28;20344;-91
2022/12/13 00:47:24;;;;;;;55.07;25.83;;;-6.90;99.90;;;;;;5017786;28;20342;-89
2022/12/13 00:49:51;;;;;;;55.03;27.33;;;-7.00;99.90;;;;;;5022453;28;20232;-90
2022/12/13 00:52:18;;;;;;;53.13;25.27;;;-7.00;99.90;;;;;;5018866;28;20224;-91
2022/12/13 00:54:45;;;;;;;52.57;24.97;;;-7.10;99.90;;;;;;5022485;28;20938;-91
2022/12/13 00:57:14;;;;;;;53.87;26.87;;;-7.10;99.90;;;;;;5012723;28;20247;-91
2022/12/13 00:59:41;;;;;;;55.10;25.60;;;-7.10;99.90;;;;;;5021409;28;20281;-90
2022/12/13 01:02:08;;;;;;;53.97;26.13;;;-7.20;99.90;;;;;;5013931;28;20231;-91
2022/12/13 01:04:36;;;;;;;52.93;24.40;;;-7.20;99.90;;;;;;5008731;28;20626;-90
2022/12/13 01:07:03;;;;;;;49.57;25.53;;;-7.20;99.90;;;;;;5018469;28;20215;-90
2022/12/13 01:09:31;;;;;;;58.70;26.57;;;-7.20;99.90;;;;;;5014456;28;20443;-90
2022/12/13 01:11:59;;;;;;;50.17;24.80;;;-7.10;99.90;;;;;;5021032;28;20280;-90
2022/12/13 01:14:29;;;;;;;56.27;25.30;;;-7.00;99.90;;;;;;5022749;28;20242;-90
2022/12/13 01:16:56;;;;;;;50.70;25.00;;;-7.00;99.90;;;;;;5021453;28;20223;-90
2022/12/13 01:19:23;;;;;;;53.60;25.77;;;-6.90;99.90;;;;;;5019912;28;20219;-89
2022/12/13 01:21:53;;;;;;;62.23;28.87;;;-6.90;99.90;;;;;;5019265;28;20229;-90
2022/12/13 01:24:21;;;;;;;55.77;27.17;;;-6.80;99.90;;;;;;5021043;28;20227;-90
2022/12/13 01:26:48;;;;;;;51.33;25.40;;;-6.80;99.90;;;;;;5020252;28;20231;-90
2022/12/13 01:29:15;;;;;;;50.83;25.33;;;-6.80;99.90;;;;;;5023681;28;20893;-90
2022/12/13 01:31:44;;;;;;;52.93;25.97;;;-6.80;99.90;;;;;;5022188;28;20247;-90
2022/12/13 01:34:12;;;;;;;57.47;25.97;;;-6.80;99.90;;;;;;5021358;28;20240;-90
2022/12/13 01:36:39;;;;;;;51.77;25.47;;;-6.80;99.90;;;;;;5015306;28;20324;-91
2022/12/13 01:39:08;;;;;;;55.67;26.20;;;-6.80;99.90;;;;;;5017163;28;20283;-90
2022/12/13 01:41:35;;;;;;;50.33;25.53;;;-6.90;99.90;;;;;;5023978;28;20798;-90
2022/12/13 01:44:03;;;;;;;49.10;24.33;;;-6.90;99.90;;;;;;5018968;28;20229;-90
2022/12/13 01:46:31;;;;;;;51.73;26.20;;;-6.90;99.90;;;;;;5040356;28;20743;-90
2022/12/13 01:49:04;;;;;;;47.73;24.90;;;-6.90;99.90;;;;;;5016121;28;20232;-90
2022/12/13 01:51:36;;;;;;;52.33;26.60;;;-6.90;99.90;;;;;;5023190;28;20225;-89
2022/12/13 01:54:06;;;;;;;48.33;25.33;;;-6.90;99.90;;;;;;5018898;28;20220;-89
2022/12/13 01:56:37;;;;;;;49.43;24.13;;;-6.90;99.90;;;;;;5020200;28;20242;-89
2022/12/13 01:59:06;;;;;;;51.23;26.10;;;-6.90;99.90;;;;;;5023728;28;20253;-90
2022/12/13 02:01:34;;;;;;;48.20;24.27;;;-6.90;99.90;;;;;;5020139;28;20221;-89
2022/12/13 02:04:02;;;;;;;49.83;25.53;;;-7.00;99.90;;;;;;5027200;28;20230;-90
2022/12/13 02:06:34;;;;;;;51.80;26.30;;;-7.00;99.90;;;;;;5023809;28;20956;-90
2022/12/13 02:09:01;;;;;;;49.50;24.40;;;-7.00;99.90;;;;;;5022577;28;20281;-91
2022/12/13 02:11:28;;;;;;;51.67;24.73;;;-7.10;99.90;;;;;;5021648;28;20286;-91
2022/12/13 02:13:57;;;;;;;46.87;23.47;;;-7.20;99.90;;;;;;5019521;28;20227;-91
2022/12/13 02:16:38;;;;;;;45.03;23.13;;;-7.20;99.90;;;;;;5035461;28;20246;-91
2022/12/13 02:19:39;;;;;;;47.23;23.37;;;-7.20;99.90;;;;;;5017320;28;20238;-91
2022/12/13 02:22:21;;;;;;;40.47;20.80;;;-7.30;99.90;;;;;;5019601;28;20218;-91
2022/12/13 02:25:07;;;;;;;54.97;24.00;;;-7.30;99.90;;;;;;5013534;28;20655;-90
2022/12/13 02:27:45;;;;;;;45.20;22.87;;;-7.30;99.90;;;;;;5021762;28;20220;-90
2022/12/13 02:30:21;;;;;;;49.57;23.93;;;-7.30;99.90;;;;;;5027231;28;20259;-90
2022/12/13 02:33:30;;;;;;;52.73;23.80;;;-7.30;99.90;;;;;;5039954;28;20230;-91
2022/12/13 02:36:06;;;;;;;48.70;23.50;;;-7.40;99.90;;;;;;5024493;28;20216;-91
2022/12/13 02:38:38;;;;;;;49.60;23.67;;;-7.40;99.90;;;;;;5016561;28;20235;-91
2022/12/13 02:41:14;;;;;;;44.47;21.80;;;-7.40;99.90;;;;;;5021493;28;20229;-90
2022/12/13 02:43:47;;;;;;;49.27;23.30;;;-7.40;99.90;;;;;;5014708;28;20314;-90
2022/12/13 02:46:19;;;;;;;47.63;23.53;;;-7.40;99.90;;;;;;5026825;28;20247;-91
2022/12/13 02:48:48;;;;;;;53.33;24.77;;;-7.40;99.90;;;;;;5025204;28;20224;-91
2022/12/13 02:51:16;;;;;;;49.50;23.93;;;-7.40;99.90;;;;;;5020005;28;20232;-91
2022/12/13 02:53:44;;;;;;;47.10;25.37;;;-7.40;99.90;;;;;;5019107;28;20239;-91
2022/12/13 02:56:11;;;;;;;42.93;22.70;;;-7.40;99.90;;;;;;5015866;28;20217;-90
2022/12/13 02:58:42;;;;;;;47.60;24.30;;;-7.40;99.90;;;;;;5020545;28;20223;-91
2022/12/13 03:01:41;;;;;;;48.87;24.60;;;-7.40;99.90;;;;;;5019455;28;20294;-90
2022/12/13 03:04:18;;;;;;;49.17;23.00;;;-7.40;99.90;;;;;;5014517;28;20252;-89
2022/12/13 03:06:56;;;;;;;47.77;24.03;;;-7.40;99.90;;;;;;5037706;28;20303;-91
2022/12/13 03:09:44;;;;;;;46.03;22.60;;;-7.40;99.90;;;;;;5023524;28;20221;-90
2022/12/13 03:15:18;;;;;;;49.47;23.03;;;-7.40;99.90;;;;;;5014276;28;20217;-89
2022/12/13 03:17:53;;;;;;;49.83;24.53;;;-7.40;99.90;;;;;;5025614;28;20224;-90
2022/12/13 03:20:25;;;;;;;46.07;22.80;;;-7.50;99.90;;;;;;5017083;28;20227;-90
2022/12/13 03:22:53;;;;;;;53.13;24.40;;;-7.50;99.90;;;;;;5022940;28;20230;-89
2022/12/13 03:25:21;;;;;;;46.63;21.73;;;-7.50;99.90;;;;;;5015363;28;20339;-91
2022/12/13 03:27:47;;;;;;;44.40;22.57;;;-7.50;99.90;;;;;;5023248;28;20267;-89
2022/12/13 03:30:14;;;;;;;46.23;22.90;;;-7.50;99.90;;;;;;5017956;28;20551;-90
2022/12/13 03:32:41;;;;;;;46.80;22.23;;;-7.60;99.90;;;;;;5017548;28;20235;-90
2022/12/13 03:35:11;;;;;;;48.57;23.50;;;-7.60;99.90;;;;;;5018817;28;20226;-90
2022/12/13 03:37:37;;;;;;;43.10;22.47;;;-7.60;99.90;;;;;;5020213;28;20244;-89
2022/12/13 03:40:05;;;;;;;58.13;24.67;;;-7.60;99.90;;;;;;5016520;28;20228;-90
2022/12/13 03:42:34;;;;;;;54.47;24.63;;;-7.60;99.90;;;;;;5021339;28;20232;-90
2022/12/13 03:45:01;;;;;;;43.50;22.83;;;-7.60;99.90;;;;;;5020257;28;20307;-91
2022/12/13 03:47:28;;;;;;;50.57;24.50;;;-7.60;99.90;;;;;;5020696;28;20266;-90
2022/12/13 03:49:56;;;;;;;49.97;23.27;;;-7.60;99.90;;;;;;5020290;28;20238;-90
2022/12/13 03:52:24;;;;;;;49.77;23.27;;;-7.50;99.90;;;;;;5019254;28;20697;-89
2022/12/13 03:54:51;;;;;;;54.57;24.73;;;-7.50;99.90;;;;;;5018735;28;20223;-90
2022/12/13 03:57:20;;;;;;;47.90;25.13;;;-7.50;99.90;;;;;;5018369;28;20259;-91
2022/12/13 03:59:47;;;;;;;46.97;22.83;;;-7.50;99.90;;;;;;5015272;28;20223;-91
2022/12/13 04:02:14;;;;;;;43.93;22.97;;;-7.50;99.90;;;;;;5021986;28;20216;-91
2022/12/13 04:04:41;;;;;;;50.43;24.93;;;-7.50;99.90;;;;;;5031425;28;20234;-91
2022/12/13 04:07:08;;;;;;;54.50;23.57;;;-7.40;99.90;;;;;;5013331;28;20258;-90
2022/12/13 04:09:36;;;;;;;48.70;23.00;;;-7.50;99.90;;;;;;5019601;28;20235;-90
2022/12/13 04:14:47;;;;;;;46.27;23.33;;;-7.50;99.90;;;;;;5032684;28;20243;-91
2022/12/13 04:17:14;;;;;;;57.43;27.00;;;-7.50;99.90;;;;;;5020273;28;20232;-93
2022/12/13 04:19:41;;;;;;;51.30;24.00;;;-7.40;99.90;;;;;;5032459;28;20227;-92
2022/12/13 04:22:07;;;;;;;47.37;23.07;;;-7.40;99.90;;;;;;5015269;28;20767;-91
2022/12/13 04:24:39;;;;;;;48.47;23.00;;;-7.40;99.90;;;;;;5015507;28;20230;-90
2022/12/13 04:27:09;;;;;;;46.60;23.63;;;-7.30;99.90;;;;;;5032566;28;20224;-90
2022/12/13 04:29:35;;;;;;;46.83;23.07;;;-7.30;99.90;;;;;;5020652;28;20240;-91
2022/12/13 04:32:04;;;;;;;46.13;21.23;;;-7.20;99.90;;;;;;5019588;28;20312;-91
2022/12/13 04:34:31;;;;;;;46.17;21.93;;;-7.20;99.90;;;;;;4988271;28;20239;-93
2022/12/13 04:36:58;;;;;;;46.97;23.40;;;-7.10;99.90;;;;;;5025240;28;20315;-92
2022/12/13 04:39:25;;;;;;;48.87;24.57;;;-7.00;99.90;;;;;;5016031;28;20225;-94
2022/12/13 04:41:53;;;;;;;47.17;22.37;;;-7.00;99.90;;;;;;5024530;28;20263;-93
2022/12/13 04:44:20;;;;;;;49.03;23.63;;;-7.00;99.90;;;;;;5013982;28;20238;-93
2022/12/13 04:46:47;;;;;;;46.83;23.17;;;-7.00;99.90;;;;;;5015398;28;20233;-93
2022/12/13 04:49:14;;;;;;;52.97;25.03;;;-7.00;99.90;;;;;;5019189;28;20589;-93
2022/12/13 04:51:41;;;;;;;47.67;23.23;;;-6.90;99.90;;;;;;5020929;28;20251;-93
2022/12/13 04:54:08;;;;;;;47.53;22.67;;;-6.90;99.90;;;;;;5019258;28;20237;-96
2022/12/13 04:56:35;;;;;;;46.40;22.37;;;-6.80;99.90;;;;;;5019206;28;20254;-92
2022/12/13 04:59:03;;;;;;;64.20;26.37;;;-6.80;99.90;;;;;;5015490;28;20216;-92
2022/12/13 05:01:30;;;;;;;47.80;23.83;;;-6.80;99.90;;;;;;5012464;28;20319;-94
2022/12/13 05:03:57;;;;;;;50.10;23.70;;;-6.70;99.90;;;;;;5014207;28;20249;-94
2022/12/13 05:06:24;;;;;;;48.63;23.70;;;-6.70;99.90;;;;;;5020996;28;20298;-92
2022/12/13 05:08:50;;;;;;;50.13;23.40;;;-6.60;99.90;;;;;;5018980;28;20228;-92
2022/12/13 05:11:17;;;;;;;48.30;23.40;;;-6.60;99.90;;;;;;5014448;28;20232;-93
2022/12/13 05:13:44;;;;;;;49.03;24.30;;;-6.50;99.90;;;;;;5020485;28;20299;-92
2022/12/13 05:16:14;;;;;;;44.90;22.57;;;-6.40;99.90;;;;;;5022185;28;20811;-94
2022/12/13 05:18:42;;;;;;;47.63;24.00;;;-6.40;99.90;;;;;;5017802;28;20228;-94
2022/12/13 05:21:11;;;;;;;48.83;25.27;;;-6.40;99.90;;;;;;5018635;28;20303;-92
2022/12/13 05:23:39;;;;;;;52.10;23.57;;;-6.30;99.90;;;;;;5043055;23;20263;-77
2022/12/13 05:26:06;;;;;;;46.77;22.67;;;-6.20;99.90;;;;;;5013999;28;20707;-79
2022/12/13 05:28:33;;;;;;;42.43;21.93;;;-6.20;99.90;;;;;;5019932;28;20224;-81
2022/12/13 05:31:07;;;;;;;46.80;23.80;;;-6.10;99.90;;;;;;5004994;28;20789;-81
2022/12/13 05:33:35;;;;;;;53.00;24.50;;;-6.10;99.90;;;;;;5015612;28;20228;-81
2022/12/13 05:36:02;;;;;;;44.23;21.63;;;-6.00;99.90;;;;;;5022318;28;20228;-80
2022/12/13 05:38:30;;;;;;;45.80;23.17;;;-5.90;99.90;;;;;;5000320;28;20306;-80
2022/12/13 05:40:57;;;;;;;57.37;23.57;;;-5.80;99.90;;;;;;5005296;28;20232;-80
2022/12/13 05:43:24;;;;;;;50.47;23.43;;;-5.80;99.90;;;;;;5018855;28;20243;-80
2022/12/13 05:45:51;;;;;;;48.17;22.50;;;-5.70;99.90;;;;;;5018578;28;20219;-78
2022/12/13 05:48:18;;;;;;;68.80;24.83;;;-5.60;99.90;;;;;;5000845;28;21016;-80
2022/12/13 05:50:48;;;;;;;49.40;23.87;;;-5.60;99.90;;;;;;5020936;28;20242;-81
2022/12/13 05:53:15;;;;;;;48.10;22.60;;;-5.50;99.90;;;;;;4994324;28;20224;-81
2022/12/13 05:55:42;;;;;;;72.93;25.03;;;-5.50;99.90;;;;;;5004771;28;20581;-81
2022/12/13 05:58:11;;;;;;;46.30;22.73;;;-5.40;99.90;;;;;;5005328;28;20230;-81
2022/12/13 06:00:38;;;;;;;47.67;22.83;;;-5.40;99.90;;;;;;5020130;28;20248;-81
2022/12/13 06:03:05;;;;;;;45.80;22.33;;;-5.40;99.90;;;;;;5015950;28;20228;-81
2022/12/13 06:05:32;;;;;;;46.70;22.70;;;-5.30;99.90;;;;;;5003029;28;21755;-82
2022/12/13 06:08:01;;;;;;;49.87;22.63;;;-5.30;99.90;;;;;;5019109;28;20250;-80
2022/12/13 06:10:28;;;;;;;46.67;23.17;;;-5.20;99.90;;;;;;5020123;28;20234;-81
2022/12/13 06:12:54;;;;;;;46.13;23.40;;;-5.20;99.90;;;;;;5023849;28;20307;-81
2022/12/13 06:15:21;;;;;;;46.87;23.53;;;-5.20;99.90;;;;;;5021432;28;20227;-81
2022/12/13 06:17:48;;;;;;;43.87;22.50;;;-5.10;99.90;;;;;;5003543;28;20328;-81
2022/12/13 06:20:15;;;;;;;49.83;23.10;;;-5.10;99.90;;;;;;5033410;28;20244;-83
2022/12/13 06:22:44;;;;;;;47.80;22.77;;;-5.10;99.90;;;;;;5006320;28;20227;-82
2022/12/13 06:25:12;;;;;;;45.17;22.23;;;-5.00;99.90;;;;;;5011419;28;20230;-83
2022/12/13 06:27:39;;;;;;;43.90;22.40;;;-5.00;99.90;;;;;;5019155;28;20223;-82
2022/12/13 06:30:07;;;;;;;45.40;23.73;;;-4.90;99.90;;;;;;5002400;28;20222;-82
2022/12/13 06:32:34;;;;;;;47.13;22.17;;;-4.90;99.90;;;;;;5011031;28;20235;-82
2022/12/13 06:35:01;;;;;;;47.23;23.67;;;-4.80;99.90;;;;;;5018034;28;21241;-83
2022/12/13 06:37:28;;;;;;;43.87;22.20;;;-4.80;99.90;;;;;;5002209;28;20233;-82
2022/12/13 06:39:54;;;;;;;43.93;22.00;;;-4.70;99.90;;;;;;5014476;28;20217;-82
2022/12/13 06:42:24;;;;;;;47.97;23.43;;;-4.70;99.90;;;;;;5005852;28;20300;-84
2022/12/13 06:44:51;;;;;;;42.13;22.27;;;-4.70;99.90;;;;;;5005961;28;20220;-85
2022/12/13 06:47:18;;;;;;;42.10;21.67;;;-4.70;99.90;;;;;;5013276;28;20778;-82
2022/12/13 06:49:45;;;;;;;47.50;22.90;;;-4.70;99.90;;;;;;5002914;28;20225;-83
2022/12/13 06:52:13;;;;;;;44.57;21.93;;;-4.70;99.90;;;;;;5004667;28;20229;-84
2022/12/13 06:54:40;;;;;;;44.03;22.67;;;-4.70;99.90;;;;;;4999988;28;20385;-85
2022/12/13 06:57:07;;;;;;;42.37;22.70;;;-4.60;99.90;;;;;;5002846;28;20226;-82
2022/12/13 06:59:37;;;;;;;43.90;22.27;;;-4.60;99.90;;;;;;4979470;28;20234;-83
2022/12/13 07:02:05;;;;;;;42.27;22.07;;;-4.60;99.90;;;;;;4990074;28;20217;-82
2022/12/13 07:04:32;;;;;;;45.13;22.57;;;-4.60;99.90;;;;;;5002188;28;20225;-83
2022/12/13 07:06:59;;;;;;;42.33;21.63;;;-4.60;99.90;;;;;;5022500;28;20249;-83
2022/12/13 07:09:26;;;;;;;45.40;23.20;;;-4.50;99.90;;;;;;5019885;28;20253;-82
2022/12/13 07:11:53;;;;;;;42.43;22.17;;;-4.50;99.90;;;;;;5005815;28;20236;-83
2022/12/13 07:14:20;;;;;;;44.87;22.37;;;-4.50;99.90;;;;;;5006362;28;20225;-83
2022/12/13 07:16:48;;;;;;;44.53;22.43;;;-4.50;99.90;;;;;;5005762;28;20614;-82
2022/12/13 07:19:14;;;;;;;42.80;22.40;;;-4.40;99.90;;;;;;5024421;28;20233;-82
2022/12/13 07:21:41;;;;;;;41.50;20.87;;;-4.40;99.90;;;;;;5017627;28;20229;-82
2022/12/13 07:24:08;;;;;;;41.23;21.67;;;-4.30;99.90;;;;;;5015282;28;20250;-85
2022/12/13 07:26:35;;;;;;;38.47;19.17;;;-4.40;99.90;;;;;;5000088;28;20698;-83
2022/12/13 07:29:03;;;;;;;42.10;20.63;;;-4.30;99.90;;;;;;5001697;28;20227;-83
2022/12/13 07:31:29;;;;;;;41.63;21.07;;;-4.30;99.90;;;;;;5000095;28;20279;-83
2022/12/13 07:33:59;;;;;;;40.40;20.43;;;-4.30;99.90;;;;;;5000386;28;20720;-84
2022/12/13 07:36:25;;;;;;;39.33;20.00;;;-4.30;99.90;;;;;;5001866;28;20732;-85
2022/12/13 07:38:54;;;;;;;42.03;20.67;;;-4.30;99.90;;;;;;5005037;28;20257;-84
2022/12/13 07:41:21;;;;;;;40.03;20.23;;;-4.20;99.90;;;;;;5002831;28;20253;-83
2022/12/13 07:43:48;;;;;;;38.17;19.33;;;-4.20;99.90;;;;;;5002409;28;20313;-85
2022/12/13 07:46:15;;;;;;;37.83;18.93;;;-4.20;99.90;;;;;;5010153;28;20317;-84
2022/12/13 07:48:42;;;;;;;38.53;19.17;;;-4.10;99.90;;;;;;4996967;28;20237;-83
2022/12/13 07:51:11;;;;;;;37.73;18.63;;;-4.10;99.90;;;;;;5004998;28;20230;-83
2022/12/13 07:53:39;;;;;;;39.67;19.93;;;-4.10;99.90;;;;;;5013866;28;20220;-82
2022/12/13 07:56:07;;;;;;;33.17;17.33;;;-4.10;99.90;;;;;;5019490;28;20737;-84
2022/12/13 07:58:36;;;;;;;33.83;17.90;;;-4.10;99.90;;;;;;5011717;28;20313;-86
2022/12/13 08:01:05;;;;;;;35.63;18.10;;;-4.10;99.90;;;;;;5020691;28;20636;-82
2022/12/13 08:03:31;;;;;;;35.80;17.53;;;-4.00;99.90;;;;;;5015378;28;20240;-83
2022/12/13 08:06:00;;;;;;;34.90;18.87;;;-4.00;99.90;;;;;;4999061;28;20234;-84
2022/12/13 08:08:28;;;;;;;36.63;17.03;;;-4.00;99.90;;;;;;5018705;28;20623;-83
2022/12/13 08:10:55;;;;;;;36.70;18.30;;;-3.90;99.90;;;;;;5004575;28;20255;-83
2022/12/13 08:13:21;;;;;;;32.30;17.10;;;-3.90;99.90;;;;;;4996705;28;20225;-85
2022/12/13 08:15:48;;;;;;;35.77;18.00;;;-3.80;99.90;;;;;;5001093;28;20889;-83
2022/12/13 08:18:16;;;;;;;33.03;17.07;;;-3.80;99.90;;;;;;5017589;28;20219;-82
2022/12/13 08:20:42;;;;;;;35.30;17.97;;;-3.70;99.90;;;;;;5016211;28;20726;-83
2022/12/13 08:23:09;;;;;;;35.93;17.87;;;-3.70;99.90;;;;;;5016205;28;20221;-83
2022/12/13 08:25:37;;;;;;;36.30;18.43;;;-3.70;99.90;;;;;;5002749;28;20653;-82
2022/12/13 08:28:04;;;;;;;32.00;16.23;;;-3.60;99.90;;;;;;5001330;28;20227;-81
2022/12/13 08:30:34;;;;;;;33.30;16.53;;;-3.60;99.90;;;;;;5025183;28;20254;-82
2022/12/13 08:33:01;;;;;;;35.37;16.33;;;-3.50;99.90;;;;;;5016863;28;20272;-83
2022/12/13 08:35:28;;;;;;;31.97;16.73;;;-3.50;99.90;;;;;;5026608;28;20286;-83
2022/12/13 08:37:55;;;;;;;31.10;15.87;;;-3.40;99.90;;;;;;5011563;28;20698;-81
2022/12/13 08:40:21;;;;;;;31.03;16.30;;;-3.40;99.90;;;;;;5026187;28;20220;-81
2022/12/13 08:42:49;;;;;;;30.63;15.27;;;-3.30;99.90;;;;;;5023218;28;20225;-85
2022/12/13 08:45:16;;;;;;;26.97;14.10;;;-3.30;99.90;;;;;;5013826;28;20230;-83
2022/12/13 08:47:43;;;;;;;31.90;16.47;;;-3.20;99.90;;;;;;5002564;28;20659;-82
2022/12/13 08:50:10;;;;;;;28.23;17.43;;;-3.10;99.90;;;;;;5016389;28;20248;-83
2022/12/13 08:52:37;;;;;;;32.17;15.33;;;-3.10;99.90;;;;;;5020985;28;20224;-81
2022/12/13 08:55:06;;;;;;;28.97;15.50;;;-3.00;99.90;;;;;;5031629;28;20223;-81
2022/12/13 08:57:36;;;;;;;30.83;17.03;;;-2.90;99.90;;;;;;5011157;28;20224;-84
2022/12/13 09:00:06;;;;;;;31.50;16.53;;;-2.80;99.90;;;;;;5007984;28;20227;-81
2022/12/13 09:02:33;;;;;;;37.80;18.00;;;-2.70;99.90;;;;;;5004956;28;20327;-82
2022/12/13 09:05:00;;;;;;;37.93;17.77;;;-2.50;99.90;;;;;;5004079;28;20234;-83
2022/12/13 09:07:28;;;;;;;34.80;17.97;;;-2.30;99.90;;;;;;5030216;28;20236;-79
2022/12/13 09:09:54;;;;;;;32.87;17.77;;;-2.00;99.90;;;;;;5023601;28;20225;-81
2022/12/13 09:12:22;;;;;;;32.70;17.70;;;-1.70;99.90;;;;;;5008513;28;20631;-80
2022/12/13 09:14:49;;;;;;;27.93;15.73;;;-1.40;99.90;;;;;;5007412;28;20224;-80
2022/12/13 09:17:19;;;;;;;29.87;16.37;;;-1.10;99.90;;;;;;5018695;28;20227;-79
2022/12/13 09:19:46;;;;;;;27.83;16.10;;;-0.90;99.90;;;;;;5019021;28;20657;-83
2022/12/13 09:22:13;;;;;;;28.37;15.60;;;-0.80;99.90;;;;;;5008545;28;20758;-82
2022/12/13 09:24:40;;;;;;;30.83;16.07;;;-0.70;99.90;;;;;;5005792;28;20315;-84
2022/12/13 09:27:08;;;;;;;27.80;15.37;;;-0.50;99.90;;;;;;5022024;28;20232;-83
2022/12/13 09:29:35;;;;;;;26.73;15.70;;;-0.40;99.90;;;;;;5007732;28;20324;-83
2022/12/13 09:32:01;;;;;;;28.63;16.13;;;-0.10;99.90;;;;;;5010287;28;20232;-82
2022/12/13 09:34:29;;;;;;;28.50;15.10;;;0.10;99.90;;;;;;5034043;28;20234;-83
2022/12/13 09:36:57;;;;;;;27.73;15.63;;;0.30;99.90;;;;;;5029041;28;20231;-83
2022/12/13 09:39:24;;;;;;;28.10;15.53;;;0.50;99.90;;;;;;5028877;28;20847;-82
2022/12/13 09:41:54;;;;;;;24.87;14.53;;;0.90;99.90;;;;;;5028588;28;20221;-83
2022/12/13 09:44:24;;;;;;;29.70;16.13;;;1.00;99.90;;;;;;5023184;28;20228;-83
2022/12/13 09:46:52;;;;;;;25.73;14.33;;;1.30;99.90;;;;;;5008242;28;20231;-82
2022/12/13 09:49:32;;;;;;;25.60;15.53;;;1.50;99.90;;;;;;5022517;28;20511;-82
2022/12/13 09:52:01;;;;;;;25.83;15.20;;;1.70;99.90;;;;;;5021532;28;20229;-83
2022/12/13 09:54:28;;;;;;;26.10;15.87;;;1.90;99.90;;;;;;5021416;28;20283;-81
2022/12/13 09:56:56;;;;;;;28.93;16.63;;;2.10;99.90;;;;;;5017888;28;20229;-80
2022/12/13 09:59:27;;;;;;;27.30;15.30;;;2.20;99.90;;;;;;5008553;28;20221;-82
2022/12/13 10:01:53;;;;;;;26.20;15.60;;;2.30;99.90;;;;;;5002409;28;20232;-81
2022/12/13 10:04:20;;;;;;;26.67;16.47;;;2.40;99.90;;;;;;5021534;28;20228;-81
2022/12/13 10:06:53;;;;;;;28.33;15.87;;;2.50;99.90;;;;;;5049785;23;20481;-79
2022/12/13 10:09:20;;;;;;;26.00;16.33;;;2.50;99.90;;;;;;5049736;28;20273;-79
2022/12/13 10:11:49;;;;;;;26.67;15.77;;;2.60;99.90;;;;;;5047245;28;20237;-79
2022/12/13 10:14:22;;;;;;;26.93;15.53;;;2.70;99.90;;;;;;5054665;28;20578;-79
2022/12/13 10:16:52;;;;;;;21.27;14.23;;;2.80;99.90;;;;;;5045727;28;20275;-79
2022/12/13 10:19:33;;;;;;;26.13;16.17;;;2.90;99.90;;;;;;5042131;28;20297;-79
2022/12/13 10:22:04;;;;;;;27.80;17.97;;;3.00;99.90;;;;;;5047603;28;20680;-79
2022/12/13 10:24:48;;;;;;;31.10;17.63;;;3.10;99.90;;;;;;5038091;28;20224;-79
2022/12/13 10:27:17;;;;;;;30.03;19.07;;;3.20;99.90;;;;;;5032530;28;20216;-79
2022/12/13 10:29:59;;;;;;;25.43;15.50;;;3.10;99.90;;;;;;5057854;28;20216;-79
2022/12/13 10:32:44;;;;;;;26.40;16.73;;;2.90;99.90;;;;;;5045542;28;20236;-79
2022/12/13 10:35:23;;;;;;;28.10;17.13;;;2.70;99.90;;;;;;5048396;28;20230;-79
2022/12/13 10:37:52;;;;;;;27.53;17.57;;;2.30;99.90;;;;;;5042399;28;20222;-79
2022/12/13 10:40:30;;;;;;;27.33;16.67;;;2.00;99.90;;;;;;5051166;28;20224;-79
2022/12/13 10:43:13;;;;;;;29.60;17.80;;;1.70;99.90;;;;;;5052574;28;20228;-79
2022/12/13 10:45:41;;;;;;;27.93;16.67;;;1.40;99.90;;;;;;5048906;28;20595;-78
2022/12/13 10:48:19;;;;;;;32.77;17.40;;;1.10;99.90;;;;;;5050186;28;20219;-78
2022/12/13 10:50:56;;;;;;;30.20;17.63;;;0.80;99.90;;;;;;5044090;28;20234;-78
2022/12/13 10:53:29;;;;;;;31.47;17.73;;;0.50;99.90;;;;;;5040558;28;20228;-78
2022/12/13 10:55:57;;;;;;;27.53;16.27;;;0.30;99.90;;;;;;5036324;28;20229;-78
2022/12/13 10:58:35;;;;;;;31.10;17.33;;;0.10;99.90;;;;;;5048772;28;20234;-78
2022/12/13 11:01:21;;;;;;;27.80;16.83;;;-0.10;99.90;;;;;;5049889;28;20217;-79
2022/12/13 11:03:57;;;;;;;28.03;15.87;;;-0.20;99.90;;;;;;5046767;28;20223;-78
2022/12/13 11:06:26;;;;;;;30.20;17.77;;;-0.40;99.90;;;;;;5064990;28;20848;-78
2022/12/13 11:08:54;;;;;;;31.97;18.10;;;-0.50;99.90;;;;;;5047379;28;20239;-79
2022/12/13 11:11:28;;;;;;;34.10;18.20;;;-0.60;99.90;;;;;;5032948;28;20231;-79
2022/12/13 11:14:00;;;;;;;32.23;16.47;;;-0.70;99.90;;;;;;5033571;28;20318;-78
2022/12/13 11:16:32;;;;;;;28.07;15.80;;;-0.70;99.90;;;;;;5041468;28;20220;-78
2022/12/13 11:19:02;;;;;;;31.23;16.90;;;-0.70;99.90;;;;;;5056101;28;20272;-79
2022/12/13 11:21:31;;;;;;;28.53;16.10;;;-0.70;99.90;;;;;;5053798;28;20234;-78
2022/12/13 11:24:03;;;;;;;29.77;16.60;;;-0.80;99.90;;;;;;5057918;28;20697;-78
2022/12/13 11:26:32;;;;;;;27.63;15.73;;;-0.80;99.90;;;;;;5056651;28;20228;-80
2022/12/13 11:29:21;;;;;;;27.37;16.37;;;-0.80;99.90;;;;;;5048146;28;20234;-79
2022/12/13 11:31:56;;;;;;;28.07;16.67;;;-0.90;99.90;;;;;;5052403;28;20234;-79
2022/12/13 11:34:37;;;;;;;28.70;16.00;;;-0.90;99.90;;;;;;5047909;28;20968;-79
2022/12/13 11:37:16;;;;;;;29.83;16.37;;;-0.90;99.90;;;;;;5042072;28;20225;-79
2022/12/13 11:39:49;;;;;;;28.90;16.67;;;-0.90;99.90;;;;;;5045095;28;20226;-79
2022/12/13 11:42:24;;;;;;;30.03;17.83;;;-1.00;99.90;;;;;;5042437;28;21170;-79
2022/12/13 11:45:00;;;;;;;31.87;16.63;;;-1.00;99.90;;;;;;5028465;28;20499;-79
2022/12/13 11:47:33;;;;;;;26.43;15.50;;;-1.10;99.90;;;;;;5035069;28;20610;-79
2022/12/13 11:50:05;;;;;;;28.93;17.30;;;-1.10;99.90;;;;;;5054487;28;20615;-78
2022/12/13 11:52:48;;;;;;;29.10;16.77;;;-1.10;99.90;;;;;;5053000;28;20234;-79
2022/12/13 11:55:34;;;;;;;31.03;17.07;;;-1.20;99.90;;;;;;5040670;28;20580;-78
2022/12/13 11:58:06;;;;;;;29.33;16.77;;;-1.20;99.90;;;;;;5040686;28;20264;-79
2022/12/13 12:00:35;;;;;;;30.97;16.20;;;-1.20;99.90;;;;;;5044005;28;20227;-79
2022/12/13 12:03:15;;;;;;;27.30;16.07;;;-1.20;99.90;;;;;;5047443;28;20275;-79
2022/12/13 12:05:47;;;;;;;31.53;17.17;;;-1.20;99.90;;;;;;5059970;28;20738;-79
2022/12/13 12:08:20;;;;;;;28.70;16.47;;;-1.30;99.90;;;;;;5057448;28;20219;-79
2022/12/13 12:10:57;;;;;;;28.70;16.67;;;-1.30;99.90;;;;;;5052753;28;20220;-78
2022/12/13 12:13:32;;;;;;;26.73;15.30;;;-1.20;99.90;;;;;;5060395;28;20245;-78
2022/12/13 12:16:10;;;;;;;28.03;15.40;;;-1.20;99.90;;;;;;5055786;28;20226;-79
2022/12/13 12:18:37;;;;;;;28.27;16.33;;;-1.30;99.90;;;;;;5041000;28;20228;-78
2022/12/13 12:21:12;;;;;;;31.90;17.87;;;-1.20;99.90;;;;;;5051915;28;20830;-79
2022/12/13 12:23:52;;;;;;;32.27;17.43;;;-1.20;99.90;;;;;;5049643;28;20232;-79
2022/12/13 12:26:26;;;;;;;28.57;16.30;;;-1.20;99.90;;;;;;5050890;28;20314;-78
2022/12/13 12:29:24;;;;;;;28.73;15.73;;;-1.20;99.90;;;;;;5052275;28;20791;-79
2022/12/13 12:32:00;;;;;;;28.77;16.60;;;-1.10;99.90;;;;;;5044382;28;20321;-79
2022/12/13 12:34:34;;;;;;;30.50;17.17;;;-1.10;99.90;;;;;;5042607;28;20691;-78
2022/12/13 12:37:12;;;;;;;29.40;16.80;;;-1.10;99.90;;;;;;5045205;28;20698;-79
2022/12/13 12:40:03;;;;;;;30.30;16.97;;;-1.20;99.90;;;;;;5051296;28;20412;-79
2022/12/13 12:42:46;;;;;;;28.90;16.73;;;-1.20;99.90;;;;;;5066556;28;20570;-78
2022/12/13 12:45:31;;;;;;;31.97;18.53;;;-1.20;99.90;;;;;;5041840;28;20308;-78
2022/12/13 12:48:12;;;;;;;32.10;17.50;;;-1.20;99.90;;;;;;5032402;28;20227;-78